sensor_id;sensor_type;location;lat;lon;timestamp;P1;durP1;ratioP1;P2;durP2;ratioP2
81314;SDS011;70781;52.510;5.718;2023-07-29T00:00:09;5.30;;;1.70;;
81314;SDS011;70781;52.510;5.718;2023-07-29T00:02:40;2.70;;;1.58;;
81314;SDS011;70781;52.510;5.718;2023-07-29T00:05:12;2.88;;;1.73;;
81314;SDS011;70781;52.510;5.718;2023-07-29T00:07:41;3.38;;;2.10;;
81314;SDS011;70781;52.510;5.718;2023-07-29T00:10:11;3.72;;;2.55;;
81314;SDS011;70781;52.510;5.718;2023-07-29T00:12:40;3.05;;;2.15;;
81314;SDS011;70781;52.510;5.718;2023-07-29T00:15:09;3.67;;;1.23;;
81314;SDS011;70781;52.510;5.718;2023-07-29T00:17:39;3.17;;;1.42;;
81314;SDS011;70781;52.510;5.718;2023-07-29T00:20:08;3.05;;;1.45;;
81314;SDS011;70781;52.510;5.718;2023-07-29T00:22:41;2.97;;;1.60;;
81314;SDS011;70781;52.510;5.718;2023-07-29T00:25:10;2.50;;;1.13;;
81314;SDS011;70781;52.510;5.718;2023-07-29T00:27:39;3.72;;;1.23;;
81314;SDS011;70781;52.510;5.718;2023-07-29T00:30:09;2.10;;;1.35;;
81314;SDS011;70781;52.510;5.718;2023-07-29T00:32:39;2.35;;;1.30;;
81314;SDS011;70781;52.510;5.718;2023-07-29T00:35:08;4.47;;;1.67;;
81314;SDS011;70781;52.510;5.718;2023-07-29T00:37:40;7.50;;;1.30;;
81314;SDS011;70781;52.510;5.718;2023-07-29T00:40:13;1.55;;;1.35;;
81314;SDS011;70781;52.510;5.718;2023-07-29T00:42:44;2.58;;;1.50;;
81314;SDS011;70781;52.510;5.718;2023-07-29T00:45:13;2.95;;;1.15;;
81314;SDS011;70781;52.510;5.718;2023-07-29T00:47:44;2.30;;;1.15;;
81314;SDS011;70781;52.510;5.718;2023-07-29T00:50:14;2.30;;;1.08;;
81314;SDS011;70781;52.510;5.718;2023-07-29T00:52:48;1.92;;;1.08;;
81314;SDS011;70781;52.510;5.718;2023-07-29T00:55:18;2.00;;;1.05;;
81314;SDS011;70781;52.510;5.718;2023-07-29T00:57:47;1.08;;;0.70;;
81314;SDS011;70781;52.510;5.718;2023-07-29T01:00:19;4.75;;;1.33;;
81314;SDS011;70781;52.510;5.718;2023-07-29T01:02:48;3.00;;;0.77;;
81314;SDS011;70781;52.510;5.718;2023-07-29T01:05:18;1.80;;;0.80;;
81314;SDS011;70781;52.510;5.718;2023-07-29T01:07:53;1.67;;;0.80;;
81314;SDS011;70781;52.510;5.718;2023-07-29T01:10:30;2.13;;;0.88;;
81314;SDS011;70781;52.510;5.718;2023-07-29T01:13:10;2.05;;;1.00;;
81314;SDS011;70781;52.510;5.718;2023-07-29T01:15:47;1.27;;;0.90;;
81314;SDS011;70781;52.510;5.718;2023-07-29T01:18:22;5.47;;;1.00;;
81314;SDS011;70781;52.510;5.718;2023-07-29T01:20:54;1.13;;;0.85;;
81314;SDS011;70781;52.510;5.718;2023-07-29T01:23:31;1.98;;;1.00;;
81314;SDS011;70781;52.510;5.718;2023-07-29T01:26:01;3.65;;;0.82;;
81314;SDS011;70781;52.510;5.718;2023-07-29T01:28:33;1.00;;;0.63;;
81314;SDS011;70781;52.510;5.718;2023-07-29T01:31:04;1.23;;;0.73;;
81314;SDS011;70781;52.510;5.718;2023-07-29T01:33:39;1.45;;;0.80;;
81314;SDS011;70781;52.510;5.718;2023-07-29T01:36:13;1.38;;;0.73;;
81314;SDS011;70781;52.510;5.718;2023-07-29T01:38:51;0.95;;;0.60;;
81314;SDS011;70781;52.510;5.718;2023-07-29T01:41:22;0.47;;;0.40;;
81314;SDS011;70781;52.510;5.718;2023-07-29T01:43:53;2.22;;;0.70;;
81314;SDS011;70781;52.510;5.718;2023-07-29T01:46:23;0.65;;;0.30;;
81314;SDS011;70781;52.510;5.718;2023-07-29T01:48:53;1.95;;;1.42;;
81314;SDS011;70781;52.510;5.718;2023-07-29T01:51:23;1.30;;;0.55;;
81314;SDS011;70781;52.510;5.718;2023-07-29T01:53:54;1.55;;;0.65;;
81314;SDS011;70781;52.510;5.718;2023-07-29T01:56:25;4.18;;;0.93;;
81314;SDS011;70781;52.510;5.718;2023-07-29T01:58:56;3.53;;;0.65;;
81314;SDS011;70781;52.510;5.718;2023-07-29T02:01:25;1.65;;;0.85;;
81314;SDS011;70781;52.510;5.718;2023-07-29T02:03:54;0.68;;;0.50;;
81314;SDS011;70781;52.510;5.718;2023-07-29T02:06:25;3.28;;;0.73;;
81314;SDS011;70781;52.510;5.718;2023-07-29T02:08:57;0.98;;;0.80;;
81314;SDS011;70781;52.510;5.718;2023-07-29T02:11:26;1.48;;;0.70;;
81314;SDS011;70781;52.510;5.718;2023-07-29T02:13:56;3.83;;;0.57;;
81314;SDS011;70781;52.510;5.718;2023-07-29T02:16:25;2.47;;;0.80;;
81314;SDS011;70781;52.510;5.718;2023-07-29T02:18:54;2.17;;;0.40;;
81314;SDS011;70781;52.510;5.718;2023-07-29T02:21:24;1.45;;;0.63;;
81314;SDS011;70781;52.510;5.718;2023-07-29T02:23:53;0.60;;;0.50;;
81314;SDS011;70781;52.510;5.718;2023-07-29T02:26:25;1.00;;;0.50;;
81314;SDS011;70781;52.510;5.718;2023-07-29T02:28:54;0.85;;;0.55;;
81314;SDS011;70781;52.510;5.718;2023-07-29T02:31:24;1.30;;;0.47;;
81314;SDS011;70781;52.510;5.718;2023-07-29T02:33:53;0.82;;;0.52;;
81314;SDS011;70781;52.510;5.718;2023-07-29T02:36:23;0.90;;;0.50;;
81314;SDS011;70781;52.510;5.718;2023-07-29T02:38:52;1.75;;;0.30;;
81314;SDS011;70781;52.510;5.718;2023-07-29T02:41:24;3.90;;;0.60;;
81314;SDS011;70781;52.510;5.718;2023-07-29T02:43:54;1.75;;;0.80;;
81314;SDS011;70781;52.510;5.718;2023-07-29T02:46:23;0.98;;;0.55;;
81314;SDS011;70781;52.510;5.718;2023-07-29T02:48:52;1.98;;;0.90;;
81314;SDS011;70781;52.510;5.718;2023-07-29T02:51:21;1.10;;;0.52;;
81314;SDS011;70781;52.510;5.718;2023-07-29T02:53:51;1.92;;;0.68;;
81314;SDS011;70781;52.510;5.718;2023-07-29T02:56:20;1.83;;;0.50;;
81314;SDS011;70781;52.510;5.718;2023-07-29T02:58:52;0.98;;;0.40;;
81314;SDS011;70781;52.510;5.718;2023-07-29T03:01:22;1.85;;;0.73;;
81314;SDS011;70781;52.510;5.718;2023-07-29T03:03:52;5.60;;;0.65;;
81314;SDS011;70781;52.510;5.718;2023-07-29T03:06:22;1.35;;;0.68;;
81314;SDS011;70781;52.510;5.718;2023-07-29T03:08:51;1.60;;;0.50;;
81314;SDS011;70781;52.510;5.718;2023-07-29T03:11:20;1.52;;;0.90;;
81314;SDS011;70781;52.510;5.718;2023-07-29T03:13:52;1.30;;;0.55;;
81314;SDS011;70781;52.510;5.718;2023-07-29T03:16:22;1.40;;;0.60;;
81314;SDS011;70781;52.510;5.718;2023-07-29T03:18:54;1.13;;;0.55;;
81314;SDS011;70781;52.510;5.718;2023-07-29T03:21:26;3.63;;;1.10;;
81314;SDS011;70781;52.510;5.718;2023-07-29T03:23:55;2.53;;;0.65;;
81314;SDS011;70781;52.510;5.718;2023-07-29T03:26:24;0.68;;;0.50;;
81314;SDS011;70781;52.510;5.718;2023-07-29T03:28:56;4.88;;;1.13;;
81314;SDS011;70781;52.510;5.718;2023-07-29T03:31:25;3.22;;;1.00;;
81314;SDS011;70781;52.510;5.718;2023-07-29T03:33:54;3.10;;;0.80;;
81314;SDS011;70781;52.510;5.718;2023-07-29T03:36:23;4.35;;;1.02;;
81314;SDS011;70781;52.510;5.718;2023-07-29T03:38:53;2.47;;;0.75;;
81314;SDS011;70781;52.510;5.718;2023-07-29T03:41:22;3.38;;;1.10;;
81314;SDS011;70781;52.510;5.718;2023-07-29T03:43:51;2.47;;;1.13;;
81314;SDS011;70781;52.510;5.718;2023-07-29T03:46:23;3.25;;;0.70;;
81314;SDS011;70781;52.510;5.718;2023-07-29T03:48:53;2.40;;;0.90;;
81314;SDS011;70781;52.510;5.718;2023-07-29T03:51:22;6.65;;;0.90;;
81314;SDS011;70781;52.510;5.718;2023-07-29T03:53:52;3.58;;;1.30;;
81314;SDS011;70781;52.510;5.718;2023-07-29T03:56:21;1.77;;;0.95;;
81314;SDS011;70781;52.510;5.718;2023-07-29T03:58:50;2.70;;;1.27;;
81314;SDS011;70781;52.510;5.718;2023-07-29T04:01:23;9.68;;;1.38;;
81314;SDS011;70781;52.510;5.718;2023-07-29T04:03:52;1.75;;;0.90;;
81314;SDS011;70781;52.510;5.718;2023-07-29T04:06:21;2.08;;;1.17;;
81314;SDS011;70781;52.510;5.718;2023-07-29T04:08:51;5.50;;;1.75;;
81314;SDS011;70781;52.510;5.718;2023-07-29T04:11:20;2.08;;;1.23;;
81314;SDS011;70781;52.510;5.718;2023-07-29T04:13:49;2.40;;;1.35;;
81314;SDS011;70781;52.510;5.718;2023-07-29T04:16:19;7.75;;;1.10;;
81314;SDS011;70781;52.510;5.718;2023-07-29T04:18:50;3.75;;;1.50;;
81314;SDS011;70781;52.510;5.718;2023-07-29T04:21:20;3.20;;;1.30;;
81314;SDS011;70781;52.510;5.718;2023-07-29T04:23:49;2.55;;;1.40;;
81314;SDS011;70781;52.510;5.718;2023-07-29T04:26:18;4.45;;;1.50;;
81314;SDS011;70781;52.510;5.718;2023-07-29T04:28:48;3.35;;;1.48;;
81314;SDS011;70781;52.510;5.718;2023-07-29T04:31:17;1.70;;;1.33;;
81314;SDS011;70781;52.510;5.718;2023-07-29T04:33:46;4.88;;;1.35;;
81314;SDS011;70781;52.510;5.718;2023-07-29T04:36:19;3.92;;;1.80;;
81314;SDS011;70781;52.510;5.718;2023-07-29T04:38:48;7.45;;;1.70;;
81314;SDS011;70781;52.510;5.718;2023-07-29T04:41:17;2.30;;;1.30;;
81314;SDS011;70781;52.510;5.718;2023-07-29T04:43:47;3.67;;;1.27;;
81314;SDS011;70781;52.510;5.718;2023-07-29T04:46:16;4.03;;;1.27;;
81314;SDS011;70781;52.510;5.718;2023-07-29T04:48:45;4.68;;;1.65;;
81314;SDS011;70781;52.510;5.718;2023-07-29T04:51:15;5.68;;;1.45;;
81314;SDS011;70781;52.510;5.718;2023-07-29T04:53:47;3.08;;;1.27;;
81314;SDS011;70781;52.510;5.718;2023-07-29T04:56:16;3.58;;;1.83;;
81314;SDS011;70781;52.510;5.718;2023-07-29T04:58:45;6.78;;;1.52;;
81314;SDS011;70781;52.510;5.718;2023-07-29T05:01:14;3.17;;;1.38;;
81314;SDS011;70781;52.510;5.718;2023-07-29T05:03:44;3.22;;;1.42;;
81314;SDS011;70781;52.510;5.718;2023-07-29T05:06:13;4.75;;;2.47;;
81314;SDS011;70781;52.510;5.718;2023-07-29T05:08:42;7.82;;;2.17;;
81314;SDS011;70781;52.510;5.718;2023-07-29T05:11:14;5.45;;;1.88;;
81314;SDS011;70781;52.510;5.718;2023-07-29T05:13:43;4.95;;;1.30;;
81314;SDS011;70781;52.510;5.718;2023-07-29T05:16:12;4.80;;;1.70;;
81314;SDS011;70781;52.510;5.718;2023-07-29T05:18:42;3.95;;;1.63;;
81314;SDS011;70781;52.510;5.718;2023-07-29T05:21:11;4.72;;;1.50;;
81314;SDS011;70781;52.510;5.718;2023-07-29T05:23:40;5.78;;;1.30;;
81314;SDS011;70781;52.510;5.718;2023-07-29T05:26:10;2.45;;;1.13;;
81314;SDS011;70781;52.510;5.718;2023-07-29T05:28:41;2.60;;;1.45;;
81314;SDS011;70781;52.510;5.718;2023-07-29T05:31:11;3.58;;;1.25;;
81314;SDS011;70781;52.510;5.718;2023-07-29T05:33:40;3.83;;;1.73;;
81314;SDS011;70781;52.510;5.718;2023-07-29T05:36:09;2.42;;;1.48;;
81314;SDS011;70781;52.510;5.718;2023-07-29T05:38:38;3.63;;;1.45;;
81314;SDS011;70781;52.510;5.718;2023-07-29T05:41:07;4.35;;;1.33;;
81314;SDS011;70781;52.510;5.718;2023-07-29T05:43:37;5.05;;;1.48;;
81314;SDS011;70781;52.510;5.718;2023-07-29T05:46:11;4.47;;;1.48;;
81314;SDS011;70781;52.510;5.718;2023-07-29T05:48:40;4.03;;;0.98;;
81314;SDS011;70781;52.510;5.718;2023-07-29T05:51:09;3.58;;;1.35;;
81314;SDS011;70781;52.510;5.718;2023-07-29T05:53:39;2.03;;;0.98;;
81314;SDS011;70781;52.510;5.718;2023-07-29T05:56:09;5.90;;;1.63;;
81314;SDS011;70781;52.510;5.718;2023-07-29T05:58:38;5.65;;;1.85;;
81314;SDS011;70781;52.510;5.718;2023-07-29T06:01:07;3.13;;;1.40;;
81314;SDS011;70781;52.510;5.718;2023-07-29T06:03:39;2.80;;;1.38;;
81314;SDS011;70781;52.510;5.718;2023-07-29T06:06:08;2.08;;;1.40;;
81314;SDS011;70781;52.510;5.718;2023-07-29T06:08:37;2.63;;;1.13;;
81314;SDS011;70781;52.510;5.718;2023-07-29T06:11:07;5.18;;;1.15;;
81314;SDS011;70781;52.510;5.718;2023-07-29T06:13:36;3.95;;;1.65;;
81314;SDS011;70781;52.510;5.718;2023-07-29T06:16:05;3.42;;;1.52;;
81314;SDS011;70781;52.510;5.718;2023-07-29T06:18:36;3.88;;;1.27;;
81314;SDS011;70781;52.510;5.718;2023-07-29T06:21:07;2.03;;;1.27;;
81314;SDS011;70781;52.510;5.718;2023-07-29T06:23:42;4.57;;;1.90;;
81314;SDS011;70781;52.510;5.718;2023-07-29T06:26:11;3.50;;;1.48;;
81314;SDS011;70781;52.510;5.718;2023-07-29T06:28:41;5.88;;;2.75;;
81314;SDS011;70781;52.510;5.718;2023-07-29T06:31:10;3.80;;;1.65;;
81314;SDS011;70781;52.510;5.718;2023-07-29T06:33:41;7.43;;;1.27;;
81314;SDS011;70781;52.510;5.718;2023-07-29T06:36:11;3.22;;;1.42;;
81314;SDS011;70781;52.510;5.718;2023-07-29T06:38:40;5.63;;;1.38;;
81314;SDS011;70781;52.510;5.718;2023-07-29T06:41:09;2.45;;;1.52;;
81314;SDS011;70781;52.510;5.718;2023-07-29T06:43:38;5.18;;;1.30;;
81314;SDS011;70781;52.510;5.718;2023-07-29T06:46:07;3.72;;;1.23;;
81314;SDS011;70781;52.510;5.718;2023-07-29T06:48:37;3.72;;;1.50;;
81314;SDS011;70781;52.510;5.718;2023-07-29T06:51:09;3.80;;;1.58;;
81314;SDS011;70781;52.510;5.718;2023-07-29T06:53:38;4.82;;;1.38;;
81314;SDS011;70781;52.510;5.718;2023-07-29T06:56:07;5.32;;;2.42;;
81314;SDS011;70781;52.510;5.718;2023-07-29T06:58:36;2.20;;;1.42;;
81314;SDS011;70781;52.510;5.718;2023-07-29T07:01:05;6.22;;;1.73;;
81314;SDS011;70781;52.510;5.718;2023-07-29T07:03:34;6.07;;;2.10;;
81314;SDS011;70781;52.510;5.718;2023-07-29T07:06:03;4.28;;;1.60;;
81314;SDS011;70781;52.510;5.718;2023-07-29T07:08:35;8.40;;;1.92;;
81314;SDS011;70781;52.510;5.718;2023-07-29T07:11:05;4.00;;;1.45;;
81314;SDS011;70781;52.510;5.718;2023-07-29T07:13:34;4.45;;;1.42;;
81314;SDS011;70781;52.510;5.718;2023-07-29T07:16:04;3.17;;;1.38;;
81314;SDS011;70781;52.510;5.718;2023-07-29T07:18:33;4.25;;;1.70;;
81314;SDS011;70781;52.510;5.718;2023-07-29T07:21:02;3.80;;;1.48;;
81314;SDS011;70781;52.510;5.718;2023-07-29T07:23:31;2.42;;;1.33;;
81314;SDS011;70781;52.510;5.718;2023-07-29T07:26:03;3.75;;;1.60;;
81314;SDS011;70781;52.510;5.718;2023-07-29T07:28:32;2.17;;;1.30;;
81314;SDS011;70781;52.510;5.718;2023-07-29T07:31:01;3.80;;;1.40;;
81314;SDS011;70781;52.510;5.718;2023-07-29T07:33:30;3.42;;;1.42;;
81314;SDS011;70781;52.510;5.718;2023-07-29T07:36:00;9.85;;;1.48;;
81314;SDS011;70781;52.510;5.718;2023-07-29T07:38:29;2.05;;;1.05;;
81314;SDS011;70781;52.510;5.718;2023-07-29T07:41:01;2.80;;;1.30;;
81314;SDS011;70781;52.510;5.718;2023-07-29T07:43:30;2.38;;;1.25;;
81314;SDS011;70781;52.510;5.718;2023-07-29T07:45:59;4.68;;;1.27;;
81314;SDS011;70781;52.510;5.718;2023-07-29T07:48:29;4.70;;;1.35;;
81314;SDS011;70781;52.510;5.718;2023-07-29T07:50:59;1.33;;;1.02;;
81314;SDS011;70781;52.510;5.718;2023-07-29T07:53:28;4.03;;;1.38;;
81314;SDS011;70781;52.510;5.718;2023-07-29T07:55:57;3.25;;;1.63;;
81314;SDS011;70781;52.510;5.718;2023-07-29T07:58:29;3.17;;;1.33;;
81314;SDS011;70781;52.510;5.718;2023-07-29T08:01:00;3.13;;;2.60;;
81314;SDS011;70781;52.510;5.718;2023-07-29T08:03:30;6.10;;;1.05;;
81314;SDS011;70781;52.510;5.718;2023-07-29T08:06:00;5.47;;;1.77;;
81314;SDS011;70781;52.510;5.718;2023-07-29T08:08:29;10.32;;;1.85;;
81314;SDS011;70781;52.510;5.718;2023-07-29T08:10:58;2.60;;;1.50;;
81314;SDS011;70781;52.510;5.718;2023-07-29T08:13:31;3.13;;;1.50;;
81314;SDS011;70781;52.510;5.718;2023-07-29T08:16:00;4.43;;;1.70;;
81314;SDS011;70781;52.510;5.718;2023-07-29T08:18:29;2.25;;;1.20;;
81314;SDS011;70781;52.510;5.718;2023-07-29T08:20:59;7.03;;;2.00;;
81314;SDS011;70781;52.510;5.718;2023-07-29T08:23:30;2.45;;;1.40;;
81314;SDS011;70781;52.510;5.718;2023-07-29T08:26:01;4.03;;;1.38;;
81314;SDS011;70781;52.510;5.718;2023-07-29T08:28:34;4.28;;;1.40;;
81314;SDS011;70781;52.510;5.718;2023-07-29T08:31:05;2.10;;;1.13;;
81314;SDS011;70781;52.510;5.718;2023-07-29T08:33:35;2.65;;;1.20;;
81314;SDS011;70781;52.510;5.718;2023-07-29T08:36:04;4.32;;;1.25;;
81314;SDS011;70781;52.510;5.718;2023-07-29T08:38:33;2.75;;;1.48;;
81314;SDS011;70781;52.510;5.718;2023-07-29T08:41:05;2.72;;;1.30;;
81314;SDS011;70781;52.510;5.718;2023-07-29T08:43:47;2.38;;;0.98;;
81314;SDS011;70781;52.510;5.718;2023-07-29T08:46:21;2.08;;;1.15;;
81314;SDS011;70781;52.510;5.718;2023-07-29T08:48:50;2.38;;;1.38;;
81314;SDS011;70781;52.510;5.718;2023-07-29T08:51:20;2.17;;;1.33;;
81314;SDS011;70781;52.510;5.718;2023-07-29T08:53:51;3.42;;;1.05;;
81314;SDS011;70781;52.510;5.718;2023-07-29T08:56:21;4.43;;;1.48;;
81314;SDS011;70781;52.510;5.718;2023-07-29T08:58:54;3.50;;;1.42;;
81314;SDS011;70781;52.510;5.718;2023-07-29T09:01:24;2.25;;;1.27;;
81314;SDS011;70781;52.510;5.718;2023-07-29T09:03:54;1.45;;;1.13;;
81314;SDS011;70781;52.510;5.718;2023-07-29T09:06:23;3.13;;;1.50;;
81314;SDS011;70781;52.510;5.718;2023-07-29T09:08:53;1.80;;;1.50;;
81314;SDS011;70781;52.510;5.718;2023-07-29T09:11:23;2.28;;;1.45;;
81314;SDS011;70781;52.510;5.718;2023-07-29T09:13:56;6.68;;;1.80;;
81314;SDS011;70781;52.510;5.718;2023-07-29T09:16:25;2.55;;;2.08;;
81314;SDS011;70781;52.510;5.718;2023-07-29T09:18:54;4.07;;;2.10;;
81314;SDS011;70781;52.510;5.718;2023-07-29T09:21:24;2.08;;;1.77;;
81314;SDS011;70781;52.510;5.718;2023-07-29T09:23:54;2.30;;;1.60;;
81314;SDS011;70781;52.510;5.718;2023-07-29T09:26:24;3.17;;;1.50;;
81314;SDS011;70781;52.510;5.718;2023-07-29T09:28:57;2.97;;;2.13;;
81314;SDS011;70781;52.510;5.718;2023-07-29T09:31:28;2.17;;;1.60;;
81314;SDS011;70781;52.510;5.718;2023-07-29T09:33:57;4.78;;;1.98;;
81314;SDS011;70781;52.510;5.718;2023-07-29T09:36:29;3.08;;;1.45;;
81314;SDS011;70781;52.510;5.718;2023-07-29T09:39:00;1.90;;;1.67;;
81314;SDS011;70781;52.510;5.718;2023-07-29T09:41:29;5.93;;;2.05;;
81314;SDS011;70781;52.510;5.718;2023-07-29T09:44:02;1.60;;;1.30;;
81314;SDS011;70781;52.510;5.718;2023-07-29T09:46:33;3.65;;;1.27;;
81314;SDS011;70781;52.510;5.718;2023-07-29T09:49:04;1.40;;;1.00;;
81314;SDS011;70781;52.510;5.718;2023-07-29T09:51:36;4.97;;;1.40;;
81314;SDS011;70781;52.510;5.718;2023-07-29T09:54:07;2.33;;;1.13;;
81314;SDS011;70781;52.510;5.718;2023-07-29T09:56:39;2.90;;;0.73;;
81314;SDS011;70781;52.510;5.718;2023-07-29T09:59:12;3.90;;;1.10;;
81314;SDS011;70781;52.510;5.718;2023-07-29T10:01:42;3.20;;;0.90;;
81314;SDS011;70781;52.510;5.718;2023-07-29T10:04:11;1.80;;;0.60;;
81314;SDS011;70781;52.510;5.718;2023-07-29T10:06:43;2.08;;;0.70;;
81314;SDS011;70781;52.510;5.718;2023-07-29T10:09:13;1.50;;;0.80;;
81314;SDS011;70781;52.510;5.718;2023-07-29T10:11:43;2.78;;;1.00;;
81314;SDS011;70781;52.510;5.718;2023-07-29T10:14:15;1.80;;;1.50;;
81314;SDS011;70781;52.510;5.718;2023-07-29T10:16:45;1.60;;;0.70;;
81314;SDS011;70781;52.510;5.718;2023-07-29T10:19:15;3.08;;;0.73;;
81314;SDS011;70781;52.510;5.718;2023-07-29T10:21:45;3.55;;;1.00;;
81314;SDS011;70781;52.510;5.718;2023-07-29T10:24:19;1.77;;;0.82;;
81314;SDS011;70781;52.510;5.718;2023-07-29T10:26:55;4.57;;;0.55;;
81314;SDS011;70781;52.510;5.718;2023-07-29T10:29:30;3.38;;;0.90;;
81314;SDS011;70781;52.510;5.718;2023-07-29T10:32:02;2.78;;;0.82;;
81314;SDS011;70781;52.510;5.718;2023-07-29T10:34:32;3.42;;;1.08;;
81314;SDS011;70781;52.510;5.718;2023-07-29T10:37:02;3.33;;;0.70;;
81314;SDS011;70781;52.510;5.718;2023-07-29T10:39:37;0.80;;;0.80;;
81314;SDS011;70781;52.510;5.718;2023-07-29T10:42:08;3.28;;;0.77;;
81314;SDS011;70781;52.510;5.718;2023-07-29T10:44:50;1.92;;;0.60;;
81314;SDS011;70781;52.510;5.718;2023-07-29T10:47:20;2.25;;;0.60;;
81314;SDS011;70781;52.510;5.718;2023-07-29T10:49:51;2.67;;;0.85;;
81314;SDS011;70781;52.510;5.718;2023-07-29T10:52:29;2.53;;;0.60;;
81314;SDS011;70781;52.510;5.718;2023-07-29T10:55:00;4.38;;;0.90;;
81314;SDS011;70781;52.510;5.718;2023-07-29T10:57:31;4.95;;;0.93;;
81314;SDS011;70781;52.510;5.718;2023-07-29T11:00:04;1.90;;;0.77;;
81314;SDS011;70781;52.510;5.718;2023-07-29T11:02:35;1.88;;;0.63;;
81314;SDS011;70781;52.510;5.718;2023-07-29T11:05:06;4.57;;;0.80;;
81314;SDS011;70781;52.510;5.718;2023-07-29T11:07:44;3.67;;;1.17;;
81314;SDS011;70781;52.510;5.718;2023-07-29T11:10:14;2.30;;;0.93;;
81314;SDS011;70781;52.510;5.718;2023-07-29T11:12:44;3.72;;;0.88;;
81314;SDS011;70781;52.510;5.718;2023-07-29T11:15:23;2.75;;;0.80;;
81314;SDS011;70781;52.510;5.718;2023-07-29T11:17:53;2.03;;;1.15;;
81314;SDS011;70781;52.510;5.718;2023-07-29T11:20:24;2.17;;;0.88;;
81314;SDS011;70781;52.510;5.718;2023-07-29T11:22:55;4.22;;;0.80;;
81314;SDS011;70781;52.510;5.718;2023-07-29T11:25:27;1.60;;;0.55;;
81314;SDS011;70781;52.510;5.718;2023-07-29T11:27:59;4.65;;;1.23;;
81314;SDS011;70781;52.510;5.718;2023-07-29T11:30:31;0.77;;;0.55;;
81314;SDS011;70781;52.510;5.718;2023-07-29T11:33:01;2.05;;;0.70;;
81314;SDS011;70781;52.510;5.718;2023-07-29T11:35:31;0.82;;;0.60;;
81314;SDS011;70781;52.510;5.718;2023-07-29T11:38:01;1.73;;;0.75;;
81314;SDS011;70781;52.510;5.718;2023-07-29T11:40:30;4.30;;;1.00;;
81314;SDS011;70781;52.510;5.718;2023-07-29T11:42:59;2.15;;;0.90;;
81314;SDS011;70781;52.510;5.718;2023-07-29T11:45:28;2.10;;;1.20;;
81314;SDS011;70781;52.510;5.718;2023-07-29T11:48:01;3.70;;;0.98;;
81314;SDS011;70781;52.510;5.718;2023-07-29T11:50:31;2.35;;;0.85;;
81314;SDS011;70781;52.510;5.718;2023-07-29T11:53:01;3.75;;;1.23;;
81314;SDS011;70781;52.510;5.718;2023-07-29T11:55:30;1.50;;;0.90;;
81314;SDS011;70781;52.510;5.718;2023-07-29T11:58:01;2.08;;;0.95;;
81314;SDS011;70781;52.510;5.718;2023-07-29T12:00:34;3.47;;;1.33;;
81314;SDS011;70781;52.510;5.718;2023-07-29T12:03:03;4.55;;;1.00;;
81314;SDS011;70781;52.510;5.718;2023-07-29T12:05:34;1.88;;;1.13;;
81314;SDS011;70781;52.510;5.718;2023-07-29T12:08:03;1.65;;;0.82;;
81314;SDS011;70781;52.510;5.718;2023-07-29T12:10:33;4.07;;;1.02;;
81314;SDS011;70781;52.510;5.718;2023-07-29T12:13:03;3.58;;;1.10;;
81314;SDS011;70781;52.510;5.718;2023-07-29T12:15:34;2.40;;;1.02;;
81314;SDS011;70781;52.510;5.718;2023-07-29T12:18:06;1.67;;;0.93;;
81314;SDS011;70781;52.510;5.718;2023-07-29T12:20:35;3.20;;;0.70;;
81314;SDS011;70781;52.510;5.718;2023-07-29T12:23:05;1.65;;;0.70;;
81314;SDS011;70781;52.510;5.718;2023-07-29T12:25:34;1.98;;;0.77;;
81314;SDS011;70781;52.510;5.718;2023-07-29T12:28:04;5.25;;;0.80;;
81314;SDS011;70781;52.510;5.718;2023-07-29T12:30:40;3.92;;;0.93;;
81314;SDS011;70781;52.510;5.718;2023-07-29T12:33:10;1.65;;;0.60;;
81314;SDS011;70781;52.510;5.718;2023-07-29T12:35:39;3.70;;;1.00;;
81314;SDS011;70781;52.510;5.718;2023-07-29T12:38:08;2.17;;;1.13;;
81314;SDS011;70781;52.510;5.718;2023-07-29T12:40:38;2.85;;;1.30;;
81314;SDS011;70781;52.510;5.718;2023-07-29T12:43:10;2.10;;;1.30;;
81314;SDS011;70781;52.510;5.718;2023-07-29T12:45:42;2.60;;;1.90;;
81314;SDS011;70781;52.510;5.718;2023-07-29T12:48:12;4.70;;;1.67;;
81314;SDS011;70781;52.510;5.718;2023-07-29T12:50:41;3.20;;;2.08;;
81314;SDS011;70781;52.510;5.718;2023-07-29T12:53:10;4.85;;;2.10;;
81314;SDS011;70781;52.510;5.718;2023-07-29T12:55:39;3.80;;;1.88;;
81314;SDS011;70781;52.510;5.718;2023-07-29T12:58:08;2.65;;;1.52;;
81314;SDS011;70781;52.510;5.718;2023-07-29T13:00:38;2.35;;;2.05;;
81314;SDS011;70781;52.510;5.718;2023-07-29T13:03:09;3.72;;;2.33;;
81314;SDS011;70781;52.510;5.718;2023-07-29T13:05:39;3.97;;;1.55;;
81314;SDS011;70781;52.510;5.718;2023-07-29T13:08:08;3.30;;;1.90;;
81314;SDS011;70781;52.510;5.718;2023-07-29T13:10:37;1.77;;;1.58;;
81314;SDS011;70781;52.510;5.718;2023-07-29T13:13:06;2.88;;;1.30;;
81314;SDS011;70781;52.510;5.718;2023-07-29T13:15:36;1.45;;;1.00;;
81314;SDS011;70781;52.510;5.718;2023-07-29T13:18:05;1.60;;;1.38;;
81314;SDS011;70781;52.510;5.718;2023-07-29T13:20:36;3.63;;;1.52;;
81314;SDS011;70781;52.510;5.718;2023-07-29T13:23:06;1.60;;;1.38;;
81314;SDS011;70781;52.510;5.718;2023-07-29T13:25:35;1.13;;;0.80;;
81314;SDS011;70781;52.510;5.718;2023-07-29T13:28:04;1.25;;;0.90;;
81314;SDS011;70781;52.510;5.718;2023-07-29T13:30:33;0.73;;;0.73;;
81314;SDS011;70781;52.510;5.718;2023-07-29T13:33:02;1.77;;;0.90;;
81314;SDS011;70781;52.510;5.718;2023-07-29T13:35:32;0.68;;;0.60;;
81314;SDS011;70781;52.510;5.718;2023-07-29T13:38:04;0.70;;;0.65;;
81314;SDS011;70781;52.510;5.718;2023-07-29T13:40:33;2.72;;;0.73;;
81314;SDS011;70781;52.510;5.718;2023-07-29T13:43:02;2.03;;;0.80;;
81314;SDS011;70781;52.510;5.718;2023-07-29T13:45:33;1.15;;;0.75;;
81314;SDS011;70781;52.510;5.718;2023-07-29T13:48:03;0.90;;;0.60;;
81314;SDS011;70781;52.510;5.718;2023-07-29T13:50:32;0.70;;;0.50;;
81314;SDS011;70781;52.510;5.718;2023-07-29T13:53:04;0.93;;;0.70;;
81314;SDS011;70781;52.510;5.718;2023-07-29T13:55:33;0.43;;;0.35;;
81314;SDS011;70781;52.510;5.718;2023-07-29T13:58:02;0.45;;;0.45;;
81314;SDS011;70781;52.510;5.718;2023-07-29T14:00:32;0.82;;;0.60;;
81314;SDS011;70781;52.510;5.718;2023-07-29T14:03:01;0.52;;;0.40;;
81314;SDS011;70781;52.510;5.718;2023-07-29T14:05:31;1.20;;;0.70;;
81314;SDS011;70781;52.510;5.718;2023-07-29T14:08:00;0.80;;;0.52;;
81314;SDS011;70781;52.510;5.718;2023-07-29T14:10:32;0.60;;;0.40;;
81314;SDS011;70781;52.510;5.718;2023-07-29T14:13:01;0.90;;;0.70;;
81314;SDS011;70781;52.510;5.718;2023-07-29T14:15:30;1.30;;;0.55;;
81314;SDS011;70781;52.510;5.718;2023-07-29T14:18:00;1.70;;;0.57;;
81314;SDS011;70781;52.510;5.718;2023-07-29T14:20:30;0.75;;;0.38;;
81314;SDS011;70781;52.510;5.718;2023-07-29T14:22:59;0.82;;;0.43;;
81314;SDS011;70781;52.510;5.718;2023-07-29T14:25:28;1.45;;;0.60;;
81314;SDS011;70781;52.510;5.718;2023-07-29T14:28:00;2.13;;;0.77;;
81314;SDS011;70781;52.510;5.718;2023-07-29T14:30:29;1.67;;;1.08;;
81314;SDS011;70781;52.510;5.718;2023-07-29T14:32:58;3.10;;;0.70;;
81314;SDS011;70781;52.510;5.718;2023-07-29T14:35:28;1.20;;;0.80;;
81314;SDS011;70781;52.510;5.718;2023-07-29T14:37:57;3.90;;;0.60;;
81314;SDS011;70781;52.510;5.718;2023-07-29T14:40:26;3.33;;;1.02;;
81314;SDS011;70781;52.510;5.718;2023-07-29T14:42:55;1.65;;;0.90;;
81314;SDS011;70781;52.510;5.718;2023-07-29T14:45:27;8.15;;;0.90;;
81314;SDS011;70781;52.510;5.718;2023-07-29T14:47:56;3.22;;;0.80;;
81314;SDS011;70781;52.510;5.718;2023-07-29T14:50:25;3.10;;;0.98;;
81314;SDS011;70781;52.510;5.718;2023-07-29T14:52:54;3.10;;;0.88;;
81314;SDS011;70781;52.510;5.718;2023-07-29T14:55:23;1.45;;;0.70;;
81314;SDS011;70781;52.510;5.718;2023-07-29T14:57:53;0.90;;;0.60;;
81314;SDS011;70781;52.510;5.718;2023-07-29T15:00:22;0.60;;;0.60;;
81314;SDS011;70781;52.510;5.718;2023-07-29T15:02:54;1.15;;;0.70;;
81314;SDS011;70781;52.510;5.718;2023-07-29T15:05:23;2.67;;;0.90;;